sensor_id;sensor_type;location;lat;lon;timestamp;P1;durP1;ratioP1;P2;durP2;ratioP2
38783;SDS011;24531;45.502;12.238;2024-03-25T00:01:03;5.88;;;4.88;;
38783;SDS011;24531;45.502;12.238;2024-03-25T00:03:29;9.90;;;5.18;;
38783;SDS011;24531;45.502;12.238;2024-03-25T00:05:54;8.52;;;5.68;;
38783;SDS011;24531;45.502;12.238;2024-03-25T00:08:20;9.45;;;5.70;;
38783;SDS011;24531;45.502;12.238;2024-03-25T00:10:46;9.07;;;5.28;;
38783;SDS011;24531;45.502;12.238;2024-03-25T00:13:11;7.18;;;4.68;;
38783;SDS011;24531;45.502;12.238;2024-03-25T00:15:37;9.93;;;6.28;;
38783;SDS011;24531;45.502;12.238;2024-03-25T00:18:03;7.35;;;5.90;;
38783;SDS011;24531;45.502;12.238;2024-03-25T00:20:30;8.50;;;5.55;;
38783;SDS011;24531;45.502;12.238;2024-03-25T00:22:56;8.55;;;6.07;;
38783;SDS011;24531;45.502;12.238;2024-03-25T00:25:21;8.02;;;5.72;;
38783;SDS011;24531;45.502;12.238;2024-03-25T00:27:47;8.90;;;6.40;;
38783;SDS011;24531;45.502;12.238;2024-03-25T00:30:12;10.45;;;6.10;;
38783;SDS011;24531;45.502;12.238;2024-03-25T00:32:39;9.13;;;6.30;;
38783;SDS011;24531;45.502;12.238;2024-03-25T00:35:05;10.55;;;5.95;;
38783;SDS011;24531;45.502;12.238;2024-03-25T00:37:31;9.35;;;7.22;;
38783;SDS011;24531;45.502;12.238;2024-03-25T00:39:57;8.98;;;6.93;;
38783;SDS011;24531;45.502;12.238;2024-03-25T00:42:22;9.70;;;6.03;;
38783;SDS011;24531;45.502;12.238;2024-03-25T00:44:48;9.10;;;6.28;;
38783;SDS011;24531;45.502;12.238;2024-03-25T00:47:14;9.77;;;6.32;;
38783;SDS011;24531;45.502;12.238;2024-03-25T00:49:40;9.65;;;6.97;;
38783;SDS011;24531;45.502;12.238;2024-03-25T00:52:05;10.30;;;6.88;;
38783;SDS011;24531;45.502;12.238;2024-03-25T00:54:31;10.70;;;7.13;;
38783;SDS011;24531;45.502;12.238;2024-03-25T00:56:57;9.82;;;7.03;;
38783;SDS011;24531;45.502;12.238;2024-03-25T00:59:23;9.10;;;6.57;;
38783;SDS011;24531;45.502;12.238;2024-03-25T01:01:49;10.52;;;7.07;;
38783;SDS011;24531;45.502;12.238;2024-03-25T01:04:15;11.02;;;7.80;;
38783;SDS011;24531;45.502;12.238;2024-03-25T01:06:43;7.45;;;6.15;;
38783;SDS011;24531;45.502;12.238;2024-03-25T01:09:08;7.30;;;5.85;;
38783;SDS011;24531;45.502;12.238;2024-03-25T01:11:35;10.20;;;7.80;;
38783;SDS011;24531;45.502;12.238;2024-03-25T01:16:36;9.30;;;7.10;;
38783;SDS011;24531;45.502;12.238;2024-03-25T01:19:01;10.02;;;6.40;;
38783;SDS011;24531;45.502;12.238;2024-03-25T01:21:27;10.25;;;6.60;;
38783;SDS011;24531;45.502;12.238;2024-03-25T01:31:34;11.65;;;6.68;;
38783;SDS011;24531;45.502;12.238;2024-03-25T01:34:00;9.63;;;6.53;;
38783;SDS011;24531;45.502;12.238;2024-03-25T01:36:25;11.32;;;6.15;;
38783;SDS011;24531;45.502;12.238;2024-03-25T01:38:52;9.45;;;6.10;;
38783;SDS011;24531;45.502;12.238;2024-03-25T01:41:20;8.02;;;6.50;;
38783;SDS011;24531;45.502;12.238;2024-03-25T01:43:49;10.70;;;6.90;;
38783;SDS011;24531;45.502;12.238;2024-03-25T01:46:19;10.40;;;6.97;;
38783;SDS011;24531;45.502;12.238;2024-03-25T01:48:46;9.48;;;6.60;;
38783;SDS011;24531;45.502;12.238;2024-03-25T01:51:13;10.32;;;6.88;;
38783;SDS011;24531;45.502;12.238;2024-03-25T01:53:42;8.45;;;6.35;;
38783;SDS011;24531;45.502;12.238;2024-03-25T01:56:09;8.63;;;6.05;;
38783;SDS011;24531;45.502;12.238;2024-03-25T01:58:37;11.95;;;6.65;;
38783;SDS011;24531;45.502;12.238;2024-03-25T02:01:03;9.02;;;6.80;;
38783;SDS011;24531;45.502;12.238;2024-03-25T02:03:29;9.52;;;6.38;;
38783;SDS011;24531;45.502;12.238;2024-03-25T02:05:55;8.98;;;6.68;;
38783;SDS011;24531;45.502;12.238;2024-03-25T02:08:25;9.63;;;6.53;;
38783;SDS011;24531;45.502;12.238;2024-03-25T02:10:52;7.88;;;6.63;;
38783;SDS011;24531;45.502;12.238;2024-03-25T02:13:21;7.30;;;6.22;;
38783;SDS011;24531;45.502;12.238;2024-03-25T02:15:47;8.20;;;6.10;;
38783;SDS011;24531;45.502;12.238;2024-03-25T02:18:16;9.98;;;6.20;;
38783;SDS011;24531;45.502;12.238;2024-03-25T02:20:42;8.45;;;6.38;;
38783;SDS011;24531;45.502;12.238;2024-03-25T02:23:07;7.57;;;6.15;;
38783;SDS011;24531;45.502;12.238;2024-03-25T02:25:35;8.63;;;6.68;;
38783;SDS011;24531;45.502;12.238;2024-03-25T02:28:03;8.98;;;6.57;;
38783;SDS011;24531;45.502;12.238;2024-03-25T02:30:28;9.32;;;6.55;;
38783;SDS011;24531;45.502;12.238;2024-03-25T02:32:54;10.27;;;6.70;;
38783;SDS011;24531;45.502;12.238;2024-03-25T02:35:20;9.27;;;6.90;;
38783;SDS011;24531;45.502;12.238;2024-03-25T02:37:47;8.55;;;6.65;;
38783;SDS011;24531;45.502;12.238;2024-03-25T02:40:13;6.68;;;5.47;;
38783;SDS011;24531;45.502;12.238;2024-03-25T02:42:39;8.95;;;6.47;;
38783;SDS011;24531;45.502;12.238;2024-03-25T02:45:05;8.73;;;6.10;;
38783;SDS011;24531;45.502;12.238;2024-03-25T02:47:31;8.88;;;6.30;;
38783;SDS011;24531;45.502;12.238;2024-03-25T02:49:57;7.95;;;6.20;;
38783;SDS011;24531;45.502;12.238;2024-03-25T02:52:23;7.40;;;5.88;;
38783;SDS011;24531;45.502;12.238;2024-03-25T02:54:49;7.18;;;5.82;;
38783;SDS011;24531;45.502;12.238;2024-03-25T02:57:16;8.98;;;5.97;;
38783;SDS011;24531;45.502;12.238;2024-03-25T03:02:12;9.65;;;6.88;;
38783;SDS011;24531;45.502;12.238;2024-03-25T03:04:38;8.02;;;6.45;;
38783;SDS011;24531;45.502;12.238;2024-03-25T03:07:04;7.05;;;5.72;;
38783;SDS011;24531;45.502;12.238;2024-03-25T03:09:29;8.80;;;6.05;;
38783;SDS011;24531;45.502;12.238;2024-03-25T03:11:55;8.48;;;5.47;;
38783;SDS011;24531;45.502;12.238;2024-03-25T03:14:21;10.35;;;5.95;;
38783;SDS011;24531;45.502;12.238;2024-03-25T03:16:46;8.70;;;6.25;;
38783;SDS011;24531;45.502;12.238;2024-03-25T03:19:12;7.63;;;5.45;;
38783;SDS011;24531;45.502;12.238;2024-03-25T03:21:38;7.32;;;5.53;;
38783;SDS011;24531;45.502;12.238;2024-03-25T03:24:04;9.93;;;6.15;;
38783;SDS011;24531;45.502;12.238;2024-03-25T03:26:31;7.43;;;5.85;;
38783;SDS011;24531;45.502;12.238;2024-03-25T03:28:57;7.85;;;5.63;;
38783;SDS011;24531;45.502;12.238;2024-03-25T03:31:22;7.50;;;5.90;;
38783;SDS011;24531;45.502;12.238;2024-03-25T03:33:51;7.90;;;5.63;;
38783;SDS011;24531;45.502;12.238;2024-03-25T03:36:17;9.20;;;6.18;;
38783;SDS011;24531;45.502;12.238;2024-03-25T03:38:44;9.50;;;6.20;;
38783;SDS011;24531;45.502;12.238;2024-03-25T03:41:10;8.18;;;6.28;;
38783;SDS011;24531;45.502;12.238;2024-03-25T03:43:36;8.25;;;5.85;;
38783;SDS011;24531;45.502;12.238;2024-03-25T03:46:02;9.38;;;6.30;;
38783;SDS011;24531;45.502;12.238;2024-03-25T03:48:28;8.57;;;5.90;;
38783;SDS011;24531;45.502;12.238;2024-03-25T03:50:54;7.78;;;5.85;;
38783;SDS011;24531;45.502;12.238;2024-03-25T03:53:19;7.93;;;6.10;;
38783;SDS011;24531;45.502;12.238;2024-03-25T03:55:58;10.63;;;5.95;;
38783;SDS011;24531;45.502;12.238;2024-03-25T03:58:30;9.15;;;5.82;;
38783;SDS011;24531;45.502;12.238;2024-03-25T04:00:56;9.20;;;5.65;;
38783;SDS011;24531;45.502;12.238;2024-03-25T04:03:22;7.45;;;5.53;;
38783;SDS011;24531;45.502;12.238;2024-03-25T04:05:48;8.07;;;6.22;;
38783;SDS011;24531;45.502;12.238;2024-03-25T04:08:13;7.43;;;5.80;;
38783;SDS011;24531;45.502;12.238;2024-03-25T04:10:39;11.18;;;6.80;;
38783;SDS011;24531;45.502;12.238;2024-03-25T04:13:05;8.98;;;5.90;;
38783;SDS011;24531;45.502;12.238;2024-03-25T04:15:36;7.45;;;6.07;;
38783;SDS011;24531;45.502;12.238;2024-03-25T04:18:05;7.60;;;6.65;;
38783;SDS011;24531;45.502;12.238;2024-03-25T04:20:37;10.55;;;6.35;;
38783;SDS011;24531;45.502;12.238;2024-03-25T04:23:07;9.38;;;6.38;;
38783;SDS011;24531;45.502;12.238;2024-03-25T04:25:33;7.40;;;5.65;;
38783;SDS011;24531;45.502;12.238;2024-03-25T04:27:59;10.75;;;5.65;;
38783;SDS011;24531;45.502;12.238;2024-03-25T04:30:25;9.02;;;5.85;;
38783;SDS011;24531;45.502;12.238;2024-03-25T04:32:51;6.43;;;4.88;;
38783;SDS011;24531;45.502;12.238;2024-03-25T04:35:17;6.60;;;5.43;;
38783;SDS011;24531;45.502;12.238;2024-03-25T04:37:42;7.15;;;5.57;;
38783;SDS011;24531;45.502;12.238;2024-03-25T04:40:08;8.55;;;5.53;;
38783;SDS011;24531;45.502;12.238;2024-03-25T04:42:35;8.73;;;5.57;;
38783;SDS011;24531;45.502;12.238;2024-03-25T04:45:02;7.00;;;5.22;;
38783;SDS011;24531;45.502;12.238;2024-03-25T04:47:28;7.30;;;5.43;;
38783;SDS011;24531;45.502;12.238;2024-03-25T04:49:54;9.40;;;5.95;;
38783;SDS011;24531;45.502;12.238;2024-03-25T04:52:19;7.22;;;5.18;;
38783;SDS011;24531;45.502;12.238;2024-03-25T04:54:48;6.57;;;5.20;;
38783;SDS011;24531;45.502;12.238;2024-03-25T04:57:14;7.47;;;5.32;;
38783;SDS011;24531;45.502;12.238;2024-03-25T04:59:40;6.15;;;4.65;;
38783;SDS011;24531;45.502;12.238;2024-03-25T05:02:05;12.40;;;5.63;;
38783;SDS011;24531;45.502;12.238;2024-03-25T05:04:31;7.18;;;4.95;;
38783;SDS011;24531;45.502;12.238;2024-03-25T05:06:57;9.60;;;5.65;;
38783;SDS011;24531;45.502;12.238;2024-03-25T05:09:23;9.23;;;4.90;;
38783;SDS011;24531;45.502;12.238;2024-03-25T05:11:48;10.63;;;5.70;;
38783;SDS011;24531;45.502;12.238;2024-03-25T05:14:17;9.55;;;5.30;;
38783;SDS011;24531;45.502;12.238;2024-03-25T05:16:43;6.50;;;5.10;;
38783;SDS011;24531;45.502;12.238;2024-03-25T05:19:08;7.50;;;5.18;;
38783;SDS011;24531;45.502;12.238;2024-03-25T05:21:34;8.98;;;5.88;;
38783;SDS011;24531;45.502;12.238;2024-03-25T05:24:00;8.55;;;5.90;;
38783;SDS011;24531;45.502;12.238;2024-03-25T05:26:25;8.05;;;4.85;;
38783;SDS011;24531;45.502;12.238;2024-03-25T05:28:54;8.60;;;5.28;;
38783;SDS011;24531;45.502;12.238;2024-03-25T05:31:22;6.95;;;5.18;;
38783;SDS011;24531;45.502;12.238;2024-03-25T05:33:48;9.85;;;5.28;;
38783;SDS011;24531;45.502;12.238;2024-03-25T05:36:14;10.40;;;5.70;;
38783;SDS011;24531;45.502;12.238;2024-03-25T05:38:40;8.60;;;6.03;;
38783;SDS011;24531;45.502;12.238;2024-03-25T05:41:07;13.27;;;8.10;;
38783;SDS011;24531;45.502;12.238;2024-03-25T05:43:34;13.18;;;8.13;;
38783;SDS011;24531;45.502;12.238;2024-03-25T05:45:59;12.10;;;7.20;;
38783;SDS011;24531;45.502;12.238;2024-03-25T05:48:25;11.85;;;7.28;;
38783;SDS011;24531;45.502;12.238;2024-03-25T05:51:01;9.63;;;5.43;;
38783;SDS011;24531;45.502;12.238;2024-03-25T05:53:30;8.07;;;5.25;;
38783;SDS011;24531;45.502;12.238;2024-03-25T05:55:56;9.95;;;5.30;;
38783;SDS011;24531;45.502;12.238;2024-03-25T05:58:29;7.72;;;4.82;;
38783;SDS011;24531;45.502;12.238;2024-03-25T06:00:56;10.85;;;5.30;;
38783;SDS011;24531;45.502;12.238;2024-03-25T06:03:22;7.55;;;5.57;;
38783;SDS011;24531;45.502;12.238;2024-03-25T06:05:49;5.57;;;4.75;;
38783;SDS011;24531;45.502;12.238;2024-03-25T06:08:14;6.25;;;5.03;;
38783;SDS011;24531;45.502;12.238;2024-03-25T06:10:46;7.75;;;4.88;;
38783;SDS011;24531;45.502;12.238;2024-03-25T06:13:12;5.40;;;4.32;;
38783;SDS011;24531;45.502;12.238;2024-03-25T06:15:37;4.82;;;4.32;;
38783;SDS011;24531;45.502;12.238;2024-03-25T06:18:03;6.18;;;4.90;;
38783;SDS011;24531;45.502;12.238;2024-03-25T06:20:29;5.30;;;4.40;;
38783;SDS011;24531;45.502;12.238;2024-03-25T06:22:54;7.75;;;5.57;;
38783;SDS011;24531;45.502;12.238;2024-03-25T06:25:20;7.90;;;5.18;;
38783;SDS011;24531;45.502;12.238;2024-03-25T06:27:46;5.80;;;4.28;;
38783;SDS011;24531;45.502;12.238;2024-03-25T06:30:12;5.78;;;4.57;;
38783;SDS011;24531;45.502;12.238;2024-03-25T06:32:56;7.60;;;4.45;;
38783;SDS011;24531;45.502;12.238;2024-03-25T06:35:44;6.15;;;4.30;;
38783;SDS011;24531;45.502;12.238;2024-03-25T06:38:10;5.15;;;4.20;;
38783;SDS011;24531;45.502;12.238;2024-03-25T06:40:42;4.63;;;3.45;;
38783;SDS011;24531;45.502;12.238;2024-03-25T06:46:32;7.72;;;4.35;;
38783;SDS011;24531;45.502;12.238;2024-03-25T06:49:01;4.25;;;3.78;;
38783;SDS011;24531;45.502;12.238;2024-03-25T06:51:33;5.03;;;3.90;;
38783;SDS011;24531;45.502;12.238;2024-03-25T06:54:36;3.60;;;3.00;;
38783;SDS011;24531;45.502;12.238;2024-03-25T06:57:02;4.85;;;2.97;;
38783;SDS011;24531;45.502;12.238;2024-03-25T06:59:28;6.28;;;3.05;;
38783;SDS011;24531;45.502;12.238;2024-03-25T07:02:01;3.78;;;3.25;;
38783;SDS011;24531;45.502;12.238;2024-03-25T07:04:26;4.22;;;3.10;;
38783;SDS011;24531;45.502;12.238;2024-03-25T07:06:53;4.18;;;3.17;;
38783;SDS011;24531;45.502;12.238;2024-03-25T07:09:18;4.10;;;3.45;;
38783;SDS011;24531;45.502;12.238;2024-03-25T07:11:45;5.13;;;3.33;;
38783;SDS011;24531;45.502;12.238;2024-03-25T07:14:11;5.55;;;3.40;;
38783;SDS011;24531;45.502;12.238;2024-03-25T07:16:37;5.85;;;3.60;;
38783;SDS011;24531;45.502;12.238;2024-03-25T07:19:05;3.50;;;2.90;;
38783;SDS011;24531;45.502;12.238;2024-03-25T07:21:31;2.80;;;2.53;;
38783;SDS011;24531;45.502;12.238;2024-03-25T07:23:56;5.32;;;3.05;;
38783;SDS011;24531;45.502;12.238;2024-03-25T07:29:49;5.70;;;3.25;;
38783;SDS011;24531;45.502;12.238;2024-03-25T07:37:28;4.10;;;2.42;;
38783;SDS011;24531;45.502;12.238;2024-03-25T07:39:54;3.08;;;2.38;;
38783;SDS011;24531;45.502;12.238;2024-03-25T07:42:20;5.05;;;2.38;;
38783;SDS011;24531;45.502;12.238;2024-03-25T07:44:45;3.00;;;2.33;;
38783;SDS011;24531;45.502;12.238;2024-03-25T07:47:11;2.78;;;2.08;;
38783;SDS011;24531;45.502;12.238;2024-03-25T07:49:36;3.00;;;2.03;;
38783;SDS011;24531;45.502;12.238;2024-03-25T07:52:03;2.83;;;2.13;;
38783;SDS011;24531;45.502;12.238;2024-03-25T07:54:29;3.10;;;1.90;;
38783;SDS011;24531;45.502;12.238;2024-03-25T07:59:42;2.10;;;1.77;;
38783;SDS011;24531;45.502;12.238;2024-03-25T08:02:08;2.22;;;1.90;;
38783;SDS011;24531;45.502;12.238;2024-03-25T08:27:19;5.13;;;2.17;;
38783;SDS011;24531;45.502;12.238;2024-03-25T08:29:48;5.03;;;2.13;;
38783;SDS011;24531;45.502;12.238;2024-03-25T08:32:25;3.35;;;2.22;;
38783;SDS011;24531;45.502;12.238;2024-03-25T08:34:50;2.90;;;2.15;;
38783;SDS011;24531;45.502;12.238;2024-03-25T08:37:17;2.50;;;2.30;;
38783;SDS011;24531;45.502;12.238;2024-03-25T08:39:43;3.13;;;1.90;;
38783;SDS011;24531;45.502;12.238;2024-03-25T08:42:08;2.15;;;1.60;;
38783;SDS011;24531;45.502;12.238;2024-03-25T08:44:34;2.30;;;2.10;;
38783;SDS011;24531;45.502;12.238;2024-03-25T08:47:00;2.38;;;2.15;;
38783;SDS011;24531;45.502;12.238;2024-03-25T08:49:25;2.78;;;1.60;;
38783;SDS011;24531;45.502;12.238;2024-03-25T08:51:51;2.33;;;1.77;;
38783;SDS011;24531;45.502;12.238;2024-03-25T08:54:17;3.42;;;1.60;;
38783;SDS011;24531;45.502;12.238;2024-03-25T08:56:43;2.08;;;1.80;;
38783;SDS011;24531;45.502;12.238;2024-03-25T08:59:20;2.35;;;1.60;;
38783;SDS011;24531;45.502;12.238;2024-03-25T10:37:19;2.58;;;2.33;;
38783;SDS011;24531;45.502;12.238;2024-03-25T10:50:30;6.82;;;3.13;;
38783;SDS011;24531;45.502;12.238;2024-03-25T11:13:42;9.32;;;3.33;;
38783;SDS011;24531;45.502;12.238;2024-03-25T11:32:28;12.15;;;3.85;;
38783;SDS011;24531;45.502;12.238;2024-03-25T12:04:56;4.80;;;3.88;;
38783;SDS011;24531;45.502;12.238;2024-03-25T12:30:57;4.90;;;4.00;;
38783;SDS011;24531;45.502;12.238;2024-03-25T12:33:29;7.72;;;4.03;;
38783;SDS011;24531;45.502;12.238;2024-03-25T12:36:42;4.60;;;3.55;;
38783;SDS011;24531;45.502;12.238;2024-03-25T12:42:42;5.45;;;4.53;;
38783;SDS011;24531;45.502;12.238;2024-03-25T13:55:01;2.17;;;1.98;;
38783;SDS011;24531;45.502;12.238;2024-03-25T13:57:27;2.20;;;1.35;;
38783;SDS011;24531;45.502;12.238;2024-03-25T13:59:53;2.38;;;1.30;;
38783;SDS011;24531;45.502;12.238;2024-03-25T14:02:25;1.48;;;1.20;;
38783;SDS011;24531;45.502;12.238;2024-03-25T14:05:10;1.45;;;1.20;;
38783;SDS011;24531;45.502;12.238;2024-03-25T14:08:02;3.83;;;2.35;;
38783;SDS011;24531;45.502;12.238;2024-03-25T14:10:34;3.55;;;2.25;;
38783;SDS011;24531;45.502;12.238;2024-03-25T14:13:03;3.35;;;2.20;;
38783;SDS011;24531;45.502;12.238;2024-03-25T14:15:30;3.90;;;2.00;;
38783;SDS011;24531;45.502;12.238;2024-03-25T14:20:40;1.70;;;1.23;;
38783;SDS011;24531;45.502;12.238;2024-03-25T14:23:05;2.67;;;1.45;;
38783;SDS011;24531;45.502;12.238;2024-03-25T14:25:35;3.33;;;1.00;;
38783;SDS011;24531;45.502;12.238;2024-03-25T14:28:00;2.63;;;1.00;;
38783;SDS011;24531;45.502;12.238;2024-03-25T14:30:26;2.65;;;1.27;;
38783;SDS011;24531;45.502;12.238;2024-03-25T14:32:52;2.92;;;0.88;;
38783;SDS011;24531;45.502;12.238;2024-03-25T14:35:20;2.65;;;1.40;;
38783;SDS011;24531;45.502;12.238;2024-03-25T14:37:46;1.95;;;1.10;;
38783;SDS011;24531;45.502;12.238;2024-03-25T14:40:11;4.05;;;1.27;;
38783;SDS011;24531;45.502;12.238;2024-03-25T14:42:38;1.70;;;1.20;;
38783;SDS011;24531;45.502;12.238;2024-03-25T14:45:03;1.55;;;0.68;;
38783;SDS011;24531;45.502;12.238;2024-03-25T14:47:39;3.58;;;1.70;;
38783;SDS011;24531;45.502;12.238;2024-03-25T14:50:05;2.67;;;1.00;;
38783;SDS011;24531;45.502;12.238;2024-03-25T14:52:40;5.05;;;1.00;;
38783;SDS011;24531;45.502;12.238;2024-03-25T14:55:14;1.85;;;0.95;;
38783;SDS011;24531;45.502;12.238;2024-03-25T14:57:40;1.15;;;1.05;;
38783;SDS011;24531;45.502;12.238;2024-03-25T15:00:06;2.75;;;0.70;;
38783;SDS011;24531;45.502;12.238;2024-03-25T15:02:32;1.98;;;0.80;;
38783;SDS011;24531;45.502;12.238;2024-03-25T15:28:16;2.42;;;0.85;;
38783;SDS011;24531;45.502;12.238;2024-03-25T15:30:42;1.52;;;0.85;;
38783;SDS011;24531;45.502;12.238;2024-03-25T15:33:07;1.58;;;0.93;;
38783;SDS011;24531;45.502;12.238;2024-03-25T15:35:33;2.35;;;0.88;;
38783;SDS011;24531;45.502;12.238;2024-03-25T15:37:59;1.75;;;0.98;;
38783;SDS011;24531;45.502;12.238;2024-03-25T15:43:18;0.88;;;0.70;;
38783;SDS011;24531;45.502;12.238;2024-03-25T15:51:53;2.53;;;1.23;;
38783;SDS011;24531;45.502;12.238;2024-03-25T15:54:33;1.40;;;0.82;;
38783;SDS011;24531;45.502;12.238;2024-03-25T15:56:58;2.42;;;0.80;;
38783;SDS011;24531;45.502;12.238;2024-03-25T15:59:25;1.52;;;0.88;;
38783;SDS011;24531;45.502;12.238;2024-03-25T16:01:50;1.63;;;1.00;;
38783;SDS011;24531;45.502;12.238;2024-03-25T16:04:17;1.92;;;0.82;;
38783;SDS011;24531;45.502;12.238;2024-03-25T16:06:43;2.47;;;0.82;;
38783;SDS011;24531;45.502;12.238;2024-03-25T16:09:08;1.27;;;0.80;;
38783;SDS011;24531;45.502;12.238;2024-03-25T16:11:34;1.15;;;0.70;;
38783;SDS011;24531;45.502;12.238;2024-03-25T17:24:47;3.83;;;1.77;;
38783;SDS011;24531;45.502;12.238;2024-03-25T18:12:21;2.65;;;1.38;;
38783;SDS011;24531;45.502;12.238;2024-03-25T18:34:10;2.47;;;0.70;;
38783;SDS011;24531;45.502;12.238;2024-03-25T18:36:35;1.70;;;0.90;;
38783;SDS011;24531;45.502;12.238;2024-03-25T18:39:04;1.48;;;0.82;;
38783;SDS011;24531;45.502;12.238;2024-03-25T18:41:30;1.50;;;0.80;;
38783;SDS011;24531;45.502;12.238;2024-03-25T18:43:58;2.17;;;1.00;;
38783;SDS011;24531;45.502;12.238;2024-03-25T18:51:35;1.02;;;0.57;;
38783;SDS011;24531;45.502;12.238;2024-03-25T18:54:16;1.70;;;0.90;;
38783;SDS011;24531;45.502;12.238;2024-03-25T18:57:00;1.90;;;0.95;;
38783;SDS011;24531;45.502;12.238;2024-03-25T18:59:26;1.00;;;0.80;;
38783;SDS011;24531;45.502;12.238;2024-03-25T19:02:09;0.85;;;0.60;;
38783;SDS011;24531;45.502;12.238;2024-03-25T19:04:44;2.58;;;0.73;;
38783;SDS011;24531;45.502;12.238;2024-03-25T19:07:10;2.03;;;1.00;;
38783;SDS011;24531;45.502;12.238;2024-03-25T19:09:48;3.50;;;0.75;;
38783;SDS011;24531;45.502;12.238;2024-03-25T19:12:32;2.20;;;0.90;;
38783;SDS011;24531;45.502;12.238;2024-03-25T19:15:07;1.80;;;1.00;;
38783;SDS011;24531;45.502;12.238;2024-03-25T19:17:51;1.15;;;0.77;;
38783;SDS011;24531;45.502;12.238;2024-03-25T19:20:20;1.40;;;0.75;;
38783;SDS011;24531;45.502;12.238;2024-03-25T19:22:57;2.38;;;0.80;;
38783;SDS011;24531;45.502;12.238;2024-03-25T19:25:23;1.02;;;0.68;;
38783;SDS011;24531;45.502;12.238;2024-03-25T19:27:52;6.00;;;0.90;;
38783;SDS011;24531;45.502;12.238;2024-03-25T19:30:23;1.83;;;0.90;;
38783;SDS011;24531;45.502;12.238;2024-03-25T19:32:52;1.75;;;0.90;;
38783;SDS011;24531;45.502;12.238;2024-03-25T19:35:30;3.45;;;0.80;;
38783;SDS011;24531;45.502;12.238;2024-03-25T19:37:56;1.63;;;0.82;;
38783;SDS011;24531;45.502;12.238;2024-03-25T19:43:08;1.20;;;0.70;;
38783;SDS011;24531;45.502;12.238;2024-03-25T19:45:58;1.50;;;0.70;;
38783;SDS011;24531;45.502;12.238;2024-03-25T19:48:24;1.30;;;0.80;;
38783;SDS011;24531;45.502;12.238;2024-03-25T19:50:50;0.93;;;0.80;;
38783;SDS011;24531;45.502;12.238;2024-03-25T19:53:16;1.73;;;1.10;;
38783;SDS011;24531;45.502;12.238;2024-03-25T19:55:42;1.08;;;0.98;;
38783;SDS011;24531;45.502;12.238;2024-03-25T20:01:29;1.95;;;0.82;;
38783;SDS011;24531;45.502;12.238;2024-03-25T20:03:58;3.60;;;1.08;;
38783;SDS011;24531;45.502;12.238;2024-03-25T20:06:25;3.33;;;0.93;;
38783;SDS011;24531;45.502;12.238;2024-03-25T20:08:51;2.30;;;0.93;;
38783;SDS011;24531;45.502;12.238;2024-03-25T20:14:48;5.82;;;1.15;;
38783;SDS011;24531;45.502;12.238;2024-03-25T20:17:13;1.85;;;1.13;;
38783;SDS011;24531;45.502;12.238;2024-03-25T20:19:42;3.20;;;1.13;;
38783;SDS011;24531;45.502;12.238;2024-03-25T20:22:08;4.05;;;0.88;;
38783;SDS011;24531;45.502;12.238;2024-03-25T20:24:51;1.38;;;0.93;;
38783;SDS011;24531;45.502;12.238;2024-03-25T20:27:24;1.08;;;0.65;;
38783;SDS011;24531;45.502;12.238;2024-03-25T20:29:50;1.58;;;0.88;;
38783;SDS011;24531;45.502;12.238;2024-03-25T20:35:31;2.38;;;0.88;;
38783;SDS011;24531;45.502;12.238;2024-03-25T20:37:56;1.48;;;0.80;;
38783;SDS011;24531;45.502;12.238;2024-03-25T20:40:22;2.53;;;1.15;;
38783;SDS011;24531;45.502;12.238;2024-03-25T20:42:48;5.40;;;3.92;;
38783;SDS011;24531;45.502;12.238;2024-03-25T20:45:13;5.50;;;3.13;;
38783;SDS011;24531;45.502;12.238;2024-03-25T20:47:39;4.60;;;2.53;;
38783;SDS011;24531;45.502;12.238;2024-03-25T20:50:17;2.80;;;1.98;;
38783;SDS011;24531;45.502;12.238;2024-03-25T20:55:45;3.88;;;2.42;;
38783;SDS011;24531;45.502;12.238;2024-03-25T20:58:11;7.20;;;2.90;;
38783;SDS011;24531;45.502;12.238;2024-03-25T21:00:52;4.15;;;2.17;;
38783;SDS011;24531;45.502;12.238;2024-03-25T21:03:17;5.40;;;2.80;;
38783;SDS011;24531;45.502;12.238;2024-03-25T21:05:56;4.20;;;2.78;;
38783;SDS011;24531;45.502;12.238;2024-03-25T21:08:31;4.40;;;2.75;;
38783;SDS011;24531;45.502;12.238;2024-03-25T21:10:59;4.68;;;2.28;;
38783;SDS011;24531;45.502;12.238;2024-03-25T21:13:28;4.10;;;2.25;;
38783;SDS011;24531;45.502;12.238;2024-03-25T21:16:14;4.10;;;2.65;;
38783;SDS011;24531;45.502;12.238;2024-03-25T21:18:42;3.72;;;2.38;;
38783;SDS011;24531;45.502;12.238;2024-03-25T21:21:08;4.82;;;2.88;;
38783;SDS011;24531;45.502;12.238;2024-03-25T21:23:35;4.53;;;2.97;;
38783;SDS011;24531;45.502;12.238;2024-03-25T21:26:04;4.43;;;2.78;;
38783;SDS011;24531;45.502;12.238;2024-03-25T21:28:44;10.15;;;3.42;;
38783;SDS011;24531;45.502;12.238;2024-03-25T21:31:16;5.78;;;3.47;;
38783;SDS011;24531;45.502;12.238;2024-03-25T21:37:12;4.82;;;3.78;;
38783;SDS011;24531;45.502;12.238;2024-03-25T21:39:37;10.35;;;4.57;;
38783;SDS011;24531;45.502;12.238;2024-03-25T21:52:04;6.97;;;4.13;;
38783;SDS011;24531;45.502;12.238;2024-03-25T21:54:33;6.05;;;4.65;;
38783;SDS011;24531;45.502;12.238;2024-03-25T21:59:46;6.28;;;4.82;;
38783;SDS011;24531;45.502;12.238;2024-03-25T22:02:15;7.47;;;5.63;;
38783;SDS011;24531;45.502;12.238;2024-03-25T22:04:40;9.48;;;6.53;;
38783;SDS011;24531;45.502;12.238;2024-03-25T22:07:24;8.18;;;6.38;;
38783;SDS011;24531;45.502;12.238;2024-03-25T22:12:50;9.52;;;5.93;;
38783;SDS011;24531;45.502;12.238;2024-03-25T22:15:15;11.52;;;7.03;;
38783;SDS011;24531;45.502;12.238;2024-03-25T22:17:41;7.97;;;6.47;;
38783;SDS011;24531;45.502;12.238;2024-03-25T22:20:07;10.20;;;6.65;;
38783;SDS011;24531;45.502;12.238;2024-03-25T22:22:32;11.73;;;6.97;;
38783;SDS011;24531;45.502;12.238;2024-03-25T22:25:01;8.23;;;7.15;;
38783;SDS011;24531;45.502;12.238;2024-03-25T22:30:41;13.00;;;7.40;;
38783;SDS011;24531;45.502;12.238;2024-03-25T22:33:06;11.55;;;8.88;;
38783;SDS011;24531;45.502;12.238;2024-03-25T22:35:35;10.73;;;8.48;;
38783;SDS011;24531;45.502;12.238;2024-03-25T22:38:29;13.20;;;9.88;;
38783;SDS011;24531;45.502;12.238;2024-03-25T22:40:55;13.68;;;9.40;;
38783;SDS011;24531;45.502;12.238;2024-03-25T22:43:24;12.38;;;7.53;;
38783;SDS011;24531;45.502;12.238;2024-03-25T22:48:57;10.30;;;7.75;;
38783;SDS011;24531;45.502;12.238;2024-03-25T22:51:25;12.75;;;8.38;;
38783;SDS011;24531;45.502;12.238;2024-03-25T22:54:20;13.98;;;8.57;;
38783;SDS011;24531;45.502;12.238;2024-03-25T22:56:45;10.05;;;8.13;;
38783;SDS011;24531;45.502;12.238;2024-03-25T22:59:11;9.18;;;7.32;;
38783;SDS011;24531;45.502;12.238;2024-03-25T23:01:37;11.90;;;8.40;;
38783;SDS011;24531;45.502;12.238;2024-03-25T23:04:02;11.18;;;7.47;;
38783;SDS011;24531;45.502;12.238;2024-03-25T23:06:37;11.82;;;8.05;;
38783;SDS011;24531;45.502;12.238;2024-03-25T23:12:11;14.35;;;8.45;;
38783;SDS011;24531;45.502;12.238;2024-03-25T23:15:05;10.88;;;7.20;;
38783;SDS011;24531;45.502;12.238;2024-03-25T23:17:31;11.10;;;7.63;;
38783;SDS011;24531;45.502;12.238;2024-03-25T23:20:13;9.52;;;7.57;;
38783;SDS011;24531;45.502;12.238;2024-03-25T23:25:29;11.07;;;7.30;;
38783;SDS011;24531;45.502;12.238;2024-03-25T23:27:58;9.55;;;7.28;;
38783;SDS011;24531;45.502;12.238;2024-03-25T23:30:40;8.77;;;7.00;;
38783;SDS011;24531;45.502;12.238;2024-03-25T23:33:21;8.43;;;6.80;;
38783;SDS011;24531;45.502;12.238;2024-03-25T23:35:47;10.98;;;7.47;;
38783;SDS011;24531;45.502;12.238;2024-03-25T23:38:24;9.40;;;6.93;;
38783;SDS011;24531;45.502;12.238;2024-03-25T23:40:50;12.50;;;7.20;;
38783;SDS011;24531;45.502;12.238;2024-03-25T23:43:19;9.73;;;7.85;;